Time;durP1;ratioP1;P1;durP2;ratioP2;P2;SDS_P1;SDS_P2;PMS_P1;PMS_P2;Temp;Humidity;BMP_temperature;BMP_pressure;BME280_temperature;BME280_humidity;BME280_pressure;Samples;Min_cycle;Max_cycle;Signal;HPM_P1;HPM_P2
2023/10/03 00:00:24;;;;;;;42.10;14.95;;;18.70;82.90;;;;;;9163135;19;20741;-72
2023/10/03 00:03:30;;;;;;;38.08;15.13;;;18.70;81.20;;;;;;9161164;19;20022;-70
2023/10/03 00:06:41;;;;;;;41.55;15.38;;;18.60;81.00;;;;;;9164118;19;20025;-73
2023/10/03 00:09:47;;;;;;;41.05;15.98;;;18.60;81.00;;;;;;9162591;19;20082;-70
2023/10/03 00:12:54;;;;;;;44.90;15.80;;;18.60;81.00;;;;;;9165068;19;20021;-73
2023/10/03 00:16:00;;;;;;;44.30;14.07;;;18.60;80.90;;;;;;9162740;19;20149;-72
2023/10/03 00:19:08;;;;;;;35.55;14.18;;;18.60;81.00;;;;;;9164525;19;20498;-73
2023/10/03 00:22:16;;;;;;;34.05;13.07;;;18.60;80.90;;;;;;9164369;19;20143;-71
2023/10/03 00:25:25;;;;;;;36.80;13.93;;;18.60;81.00;;;;;;9162244;19;20029;-70
2023/10/03 00:28:30;;;;;;;35.45;14.25;;;18.50;80.90;;;;;;9165011;19;20019;-68
2023/10/03 00:31:40;;;;;;;36.60;13.88;;;18.50;80.90;;;;;;9163022;19;20016;-71
2023/10/03 00:34:45;;;;;;;38.08;14.60;;;18.50;80.90;;;;;;9164362;19;20353;-70
2023/10/03 00:37:56;;;;;;;35.67;14.07;;;18.50;80.90;;;;;;9163584;19;20017;-70
2023/10/03 00:41:05;;;;;;;36.47;14.15;;;18.50;80.90;;;;;;9160448;19;20011;-70
2023/10/03 00:44:12;;;;;;;34.13;14.32;;;18.40;80.90;;;;;;9161588;19;20022;-68
2023/10/03 00:47:18;;;;;;;38.47;14.75;;;18.40;80.80;;;;;;9161851;19;20026;-70
2023/10/03 00:50:38;;;;;;;38.25;13.65;;;18.40;80.90;;;;;;9161771;19;20026;-70
2023/10/03 00:53:46;;;;;;;38.28;14.98;;;18.30;80.80;;;;;;9156705;19;20006;-72
2023/10/03 00:56:53;;;;;;;41.88;14.90;;;18.30;80.90;;;;;;9162887;19;20021;-71
2023/10/03 00:59:59;;;;;;;38.78;13.90;;;18.30;81.30;;;;;;9163056;19;20010;-71
2023/10/03 01:03:09;;;;;;;36.03;14.32;;;18.30;81.20;;;;;;9160405;19;20014;-69
2023/10/03 01:06:15;;;;;;;37.20;13.80;;;18.30;80.90;;;;;;9162432;19;20041;-69
2023/10/03 01:09:28;;;;;;;39.45;14.65;;;18.20;80.90;;;;;;9161961;19;20023;-71
2023/10/03 01:12:35;;;;;;;37.17;14.40;;;18.20;80.90;;;;;;9162632;19;20011;-70
2023/10/03 01:15:44;;;;;;;37.05;13.93;;;18.20;81.00;;;;;;9161993;19;20814;-68
2023/10/03 01:18:52;;;;;;;37.45;14.13;;;18.20;81.00;;;;;;9170148;19;20021;-72
2023/10/03 01:21:59;;;;;;;38.70;14.07;;;18.20;81.00;;;;;;9171241;19;20372;-71
2023/10/03 01:25:12;;;;;;;38.70;13.98;;;18.10;81.00;;;;;;9168622;19;20015;-72
2023/10/03 01:28:19;;;;;;;43.53;15.00;;;18.10;81.00;;;;;;9169914;19;20095;-71
2023/10/03 01:31:27;;;;;;;43.65;15.82;;;18.10;81.00;;;;;;9169506;19;20011;-72
2023/10/03 01:34:34;;;;;;;42.80;15.27;;;18.10;81.00;;;;;;9170433;19;20558;-69
2023/10/03 01:37:40;;;;;;;44.88;16.25;;;18.10;81.00;;;;;;9170988;19;20017;-71
2023/10/03 01:40:53;;;;;;;38.45;14.95;;;18.10;81.00;;;;;;9169445;19;20022;-70
2023/10/03 01:43:58;;;;;;;34.10;14.35;;;18.10;81.10;;;;;;9170215;19;20022;-70
2023/10/03 01:47:07;;;;;;;47.25;16.08;;;18.10;81.10;;;;;;9168611;19;20014;-72
2023/10/03 01:50:13;;;;;;;45.45;15.93;;;18.10;81.10;;;;;;9166273;19;20089;-72
2023/10/03 01:53:23;;;;;;;43.72;16.15;;;18.10;81.10;;;;;;9164758;19;20506;-70
2023/10/03 01:56:34;;;;;;;46.00;16.00;;;18.10;81.00;;;;;;9168556;19;20014;-71
2023/10/03 01:59:42;;;;;;;42.38;16.40;;;18.10;81.30;;;;;;9168234;19;20025;-70
2023/10/03 02:02:47;;;;;;;47.83;16.48;;;18.10;81.00;;;;;;9168255;19;20138;-74
2023/10/03 02:05:55;;;;;;;52.05;16.58;;;18.10;81.10;;;;;;9165911;19;20030;-68
2023/10/03 02:09:03;;;;;;;48.35;15.93;;;18.10;81.10;;;;;;9167778;19;20042;-69
2023/10/03 02:12:14;;;;;;;49.42;17.05;;;18.10;81.10;;;;;;9168943;19;20042;-69
2023/10/03 02:15:23;;;;;;;42.65;15.15;;;18.10;81.10;;;;;;9168133;19;20014;-72
2023/10/03 02:18:31;;;;;;;46.17;16.95;;;18.10;81.10;;;;;;9167926;19;20086;-71
2023/10/03 02:21:37;;;;;;;48.88;17.48;;;18.10;81.10;;;;;;9167872;19;20118;-72
2023/10/03 02:24:44;;;;;;;45.28;15.63;;;18.20;81.20;;;;;;9168302;19;20547;-68
2023/10/03 02:27:53;;;;;;;44.92;15.68;;;18.20;81.20;;;;;;9168703;19;20377;-72
2023/10/03 02:31:02;;;;;;;41.40;14.38;;;18.20;81.20;;;;;;9167182;19;20480;-72
2023/10/03 02:34:09;;;;;;;43.08;14.90;;;18.30;81.20;;;;;;9168930;19;20038;-69
2023/10/03 02:37:17;;;;;;;42.45;15.15;;;18.30;81.20;;;;;;9166281;19;20022;-72
2023/10/03 02:40:27;;;;;;;50.35;15.48;;;18.30;81.20;;;;;;9167171;19;20404;-72
2023/10/03 02:43:39;;;;;;;46.88;14.98;;;18.30;81.20;;;;;;9166189;19;20007;-69
2023/10/03 02:46:48;;;;;;;38.88;14.38;;;18.40;81.20;;;;;;9164284;19;20026;-70
2023/10/03 02:49:56;;;;;;;37.05;15.00;;;18.40;81.20;;;;;;9164595;19;20022;-71
2023/10/03 02:53:11;;;;;;;44.00;15.15;;;18.40;81.10;;;;;;9166246;19;20487;-70
2023/10/03 02:56:19;;;;;;;38.75;13.68;;;18.50;81.80;;;;;;9166235;19;20015;-69
2023/10/03 02:59:27;;;;;;;38.47;14.60;;;18.50;81.10;;;;;;9167407;19;20014;-71
2023/10/03 03:02:36;;;;;;;37.90;13.98;;;18.60;81.10;;;;;;9165624;19;20018;-71
2023/10/03 03:05:43;;;;;;;42.05;15.05;;;18.60;81.00;;;;;;9164235;19;20140;-70
2023/10/03 03:08:53;;;;;;;49.22;15.25;;;18.60;81.00;;;;;;9164807;19;20019;-69
2023/10/03 03:12:00;;;;;;;38.15;14.73;;;18.60;80.90;;;;;;9168275;19;20022;-70
2023/10/03 03:15:12;;;;;;;40.72;14.30;;;18.70;80.90;;;;;;9166243;19;20411;-71
2023/10/03 03:18:19;;;;;;;40.28;15.88;;;18.70;80.90;;;;;;9167801;19;20022;-73
2023/10/03 03:21:26;;;;;;;38.97;15.35;;;18.70;80.80;;;;;;9164520;19;20026;-69
2023/10/03 03:24:34;;;;;;;40.00;14.68;;;18.70;80.80;;;;;;9164876;19;20033;-72
2023/10/03 03:27:41;;;;;;;42.38;14.55;;;18.80;80.90;;;;;;9166239;19;20375;-72
2023/10/03 03:30:55;;;;;;;43.92;15.02;;;18.80;80.80;;;;;;9166552;19;20029;-70
2023/10/03 03:34:03;;;;;;;40.22;14.98;;;18.80;80.80;;;;;;9164886;19;20463;-71
2023/10/03 03:37:21;;;;;;;41.00;13.65;;;18.90;83.10;;;;;;9166899;19;20014;-71
2023/10/03 03:40:34;;;;;;;34.38;13.80;;;18.90;83.50;;;;;;9164598;19;20014;-70
2023/10/03 03:43:39;;;;;;;38.38;14.27;;;19.00;86.60;;;;;;9165713;19;20019;-69
2023/10/03 03:46:49;;;;;;;40.10;13.25;;;18.90;80.60;;;;;;9163993;19;20022;-71
2023/10/03 03:49:56;;;;;;;34.63;13.95;;;18.90;80.50;;;;;;9163006;19;20007;-71
2023/10/03 03:53:03;;;;;;;46.95;14.18;;;18.90;80.50;;;;;;9164201;19;20498;-71
2023/10/03 03:56:12;;;;;;;39.70;14.50;;;18.90;80.50;;;;;;9160664;19;20010;-73
2023/10/03 03:59:21;;;;;;;31.40;12.32;;;18.90;80.50;;;;;;9165763;19;20693;-72
2023/10/03 04:02:30;;;;;;;39.03;14.48;;;18.90;80.40;;;;;;9165626;19;20022;-71
2023/10/03 04:05:38;;;;;;;41.47;14.68;;;19.00;80.50;;;;;;9162678;19;20015;-73
2023/10/03 04:08:45;;;;;;;41.40;14.18;;;18.90;80.40;;;;;;9165035;19;20082;-72
2023/10/03 04:12:13;;;;;;;33.63;12.85;;;19.00;80.40;;;;;;9162646;19;20480;-69
2023/10/03 04:15:19;;;;;;;35.83;13.05;;;19.00;80.40;;;;;;9164588;19;20026;-70
2023/10/03 04:18:29;;;;;;;38.95;13.23;;;19.00;80.40;;;;;;9164926;19;20026;-72
2023/10/03 04:21:35;;;;;;;41.60;13.05;;;19.00;80.40;;;;;;9163901;19;20014;-70
2023/10/03 04:24:42;;;;;;;39.20;14.07;;;19.10;80.40;;;;;;9159915;19;20018;-71
2023/10/03 04:27:49;;;;;;;46.00;14.10;;;19.10;80.50;;;;;;9163413;19;20014;-71
2023/10/03 04:30:57;;;;;;;42.28;13.30;;;19.10;80.40;;;;;;9163915;19;20015;-69
2023/10/03 04:34:07;;;;;;;39.40;14.05;;;19.10;80.40;;;;;;9162093;19;20011;-72
2023/10/03 04:37:16;;;;;;;35.95;12.63;;;19.20;80.40;;;;;;9162436;19;20045;-71
2023/10/03 04:40:31;;;;;;;37.35;12.23;;;19.20;80.40;;;;;;9162150;19;20471;-71
2023/10/03 04:43:39;;;;;;;40.05;13.70;;;19.20;80.30;;;;;;9163228;19;20968;-68
2023/10/03 04:46:48;;;;;;;29.73;12.73;;;19.20;80.30;;;;;;9160090;19;20577;-70
2023/10/03 04:50:02;;;;;;;29.95;11.63;;;19.20;80.30;;;;;;9161974;19;20018;-68
2023/10/03 04:53:09;;;;;;;34.40;12.60;;;19.30;80.40;;;;;;9169784;19;20414;-69
2023/10/03 04:56:17;;;;;;;35.63;12.13;;;19.30;80.40;;;;;;9172805;19;20018;-71
2023/10/03 04:59:22;;;;;;;34.15;12.43;;;19.30;80.40;;;;;;9173051;19;20014;-71
2023/10/03 05:02:30;;;;;;;35.00;12.15;;;19.30;80.40;;;;;;9172352;19;20028;-71
2023/10/03 05:05:39;;;;;;;33.45;11.48;;;19.30;80.30;;;;;;9169282;19;20045;-71
2023/10/03 05:08:47;;;;;;;42.78;12.77;;;19.40;80.40;;;;;;9169563;19;20017;-71
2023/10/03 05:11:53;;;;;;;31.10;11.23;;;19.40;80.40;;;;;;9169142;19;20032;-71
2023/10/03 05:15:01;;;;;;;33.40;11.52;;;19.40;81.70;;;;;;9169570;19;20011;-73
2023/10/03 05:18:06;;;;;;;38.08;12.00;;;19.50;84.50;;;;;;9171700;19;20040;-72
2023/10/03 05:21:17;;;;;;;35.78;12.43;;;18.90;80.60;;;;;;9167379;19;20025;-68
2023/10/03 05:24:23;;;;;;;36.15;11.98;;;19.40;80.30;;;;;;9170376;19;20464;-73
2023/10/03 05:27:32;;;;;;;33.10;12.63;;;19.50;80.20;;;;;;9169081;19;20014;-74
2023/10/03 05:30:38;;;;;;;34.67;11.60;;;19.50;80.30;;;;;;9170979;19;20022;-72
2023/10/03 05:33:46;;;;;;;32.58;11.75;;;19.50;80.20;;;;;;9169581;19;20026;-71
2023/10/03 05:36:54;;;;;;;32.53;10.73;;;19.50;80.10;;;;;;9169627;19;20042;-69
2023/10/03 05:40:11;;;;;;;32.03;10.82;;;19.50;80.20;;;;;;9169266;19;20029;-70
2023/10/03 05:43:17;;;;;;;31.67;11.07;;;19.50;80.10;;;;;;9170177;19;20502;-72
2023/10/03 05:46:25;;;;;;;35.90;10.38;;;19.50;80.10;;;;;;9167850;19;20017;-74
2023/10/03 05:49:31;;;;;;;34.22;10.77;;;19.50;80.10;;;;;;9169624;19;20022;-72
2023/10/03 05:52:41;;;;;;;27.25;9.73;;;19.60;80.20;;;;;;9170387;19;20476;-72
2023/10/03 05:55:47;;;;;;;37.47;10.75;;;19.60;80.20;;;;;;9164862;19;20019;-70
2023/10/03 05:58:54;;;;;;;31.73;9.55;;;19.60;80.20;;;;;;9170357;19;20058;-72
2023/10/03 06:02:00;;;;;;;23.90;8.50;;;19.60;80.20;;;;;;9170584;19;20410;-75
2023/10/03 06:05:08;;;;;;;32.90;9.80;;;19.60;80.20;;;;;;9165589;19;20010;-72
2023/10/03 06:08:17;;;;;;;24.35;8.75;;;19.60;80.20;;;;;;9168382;19;20018;-73
2023/10/03 06:11:24;;;;;;;24.10;8.50;;;19.70;80.30;;;;;;9168909;19;20023;-73
2023/10/03 06:14:30;;;;;;;25.48;8.93;;;19.70;80.20;;;;;;9168176;19;20111;-75
2023/10/03 06:17:38;;;;;;;26.73;8.75;;;19.70;80.30;;;;;;9166775;19;20021;-74
2023/10/03 06:20:44;;;;;;;24.80;7.45;;;19.70;80.20;;;;;;9169513;19;20015;-75
2023/10/03 06:23:54;;;;;;;23.70;7.50;;;19.70;80.20;;;;;;9167467;19;20015;-71
2023/10/03 06:27:00;;;;;;;21.30;7.13;;;19.70;80.20;;;;;;9168185;19;20010;-73
2023/10/03 06:30:09;;;;;;;17.95;5.82;;;19.70;80.20;;;;;;9169745;19;20014;-70
2023/10/03 06:33:15;;;;;;;21.13;5.32;;;19.80;80.10;;;;;;9170490;19;20590;-70
2023/10/03 06:36:23;;;;;;;16.98;4.38;;;19.70;80.00;;;;;;9170114;19;20019;-72
2023/10/03 06:39:30;;;;;;;11.00;4.55;;;19.80;80.00;;;;;;9168939;19;20018;-73
2023/10/03 06:42:38;;;;;;;14.35;4.57;;;19.80;80.00;;;;;;9167389;19;20014;-71
2023/10/03 06:45:43;;;;;;;17.15;3.97;;;19.70;79.90;;;;;;9169492;19;20036;-72
2023/10/03 06:48:52;;;;;;;15.63;4.20;;;19.80;79.90;;;;;;9164903;19;20018;-70
2023/10/03 06:52:00;;;;;;;17.90;4.72;;;19.80;80.10;;;;;;9165961;19;20014;-68
2023/10/03 06:55:15;;;;;;;12.43;3.53;;;19.80;81.30;;;;;;9161134;19;20322;-71
2023/10/03 06:58:21;;;;;;;14.20;3.72;;;19.80;83.10;;;;;;9167068;19;20041;-74
2023/10/03 07:01:28;;;;;;;7.97;3.72;;;19.90;84.70;;;;;;9167712;19;20014;-70
2023/10/03 07:04:34;;;;;;;10.27;3.55;;;19.70;79.50;;;;;;9165803;19;20019;-73
2023/10/03 07:07:42;;;;;;;9.27;3.47;;;19.70;79.50;;;;;;9165376;19;20018;-74
2023/10/03 07:10:50;;;;;;;8.80;3.63;;;19.70;79.40;;;;;;9167564;19;20027;-72
2023/10/03 07:13:57;;;;;;;10.18;3.33;;;19.70;79.40;;;;;;9160735;19;20003;-72
2023/10/03 07:17:03;;;;;;;11.23;3.22;;;19.70;79.30;;;;;;9165254;19;20026;-74
2023/10/03 07:20:12;;;;;;;12.23;3.15;;;19.70;79.40;;;;;;9165320;19;20018;-70
2023/10/03 07:23:19;;;;;;;8.38;3.03;;;19.70;79.40;;;;;;9166765;19;20120;-72
2023/10/03 07:26:29;;;;;;;8.93;3.05;;;19.70;80.00;;;;;;9165321;19;20014;-70
2023/10/03 07:29:36;;;;;;;9.65;2.72;;;19.70;80.00;;;;;;9162408;19;20033;-74
2023/10/03 07:32:45;;;;;;;9.38;3.00;;;19.80;81.10;;;;;;9163132;19;20011;-71
2023/10/03 07:35:50;;;;;;;9.10;2.72;;;19.80;79.30;;;;;;9163306;19;20580;-71
2023/10/03 07:38:58;;;;;;;6.93;3.03;;;19.80;79.20;;;;;;9162162;19;20502;-74
2023/10/03 07:42:07;;;;;;;12.80;3.03;;;19.80;79.20;;;;;;9163446;19;20022;-70
2023/10/03 07:45:15;;;;;;;10.88;3.10;;;19.80;79.20;;;;;;9165868;19;20038;-71
2023/10/03 07:48:21;;;;;;;16.23;2.90;;;19.90;79.50;;;;;;9161022;19;20041;-70
2023/10/03 07:51:29;;;;;;;6.97;2.85;;;19.90;79.10;;;;;;9163985;19;20019;-76
2023/10/03 07:54:37;;;;;;;8.93;3.25;;;19.90;82.20;;;;;;9159266;19;20077;-71
2023/10/03 07:57:47;;;;;;;8.70;3.30;;;20.50;79.40;;;;;;9162232;19;20422;-70
2023/10/03 08:00:53;;;;;;;11.38;3.40;;;19.90;80.70;;;;;;9162113;19;20021;-72
2023/10/03 08:04:02;;;;;;;16.63;4.32;;;19.90;79.10;;;;;;9164822;19;20021;-71
2023/10/03 08:07:08;;;;;;;8.00;3.17;;;19.90;79.70;;;;;;9163008;19;20019;-70
2023/10/03 08:10:16;;;;;;;9.88;3.63;;;20.10;81.40;;;;;;9163842;19;20018;-71
2023/10/03 08:13:24;;;;;;;14.73;3.28;;;20.00;80.20;;;;;;9165657;19;20437;-70
2023/10/03 08:16:34;;;;;;;6.25;3.22;;;20.00;79.80;;;;;;9166133;19;20015;-71
2023/10/03 08:19:40;;;;;;;16.35;3.72;;;19.90;79.60;;;;;;9164534;19;20018;-71
2023/10/03 08:22:50;;;;;;;12.18;3.58;;;20.00;79.90;;;;;;9160529;19;20376;-70
2023/10/03 08:26:01;;;;;;;8.25;2.83;;;19.90;78.90;;;;;;9161023;19;20019;-71
2023/10/03 08:29:11;;;;;;;10.10;2.78;;;19.90;79.00;;;;;;9161855;19;20015;-71
2023/10/03 08:32:16;;;;;;;13.15;2.70;;;19.90;79.00;;;;;;9163482;19;20072;-69
2023/10/03 08:35:34;;;;;;;12.75;2.97;;;20.00;79.00;;;;;;9163783;19;20010;-70
2023/10/03 08:38:43;;;;;;;4.93;2.38;;;20.00;79.00;;;;;;9160007;19;20060;-72
2023/10/03 08:42:11;;;;;;;8.80;2.83;;;20.00;78.90;;;;;;9162339;19;20010;-71
2023/10/03 08:45:22;;;;;;;8.73;2.42;;;20.00;78.80;;;;;;9163315;19;20024;-70
2023/10/03 08:48:34;;;;;;;11.03;2.80;;;20.00;78.80;;;;;;9163373;19;20468;-70
2023/10/03 08:51:40;;;;;;;9.18;2.50;;;20.00;78.80;;;;;;9162318;19;20010;-71
2023/10/03 08:54:54;;;;;;;7.22;2.50;;;20.10;79.60;;;;;;9157398;19;20547;-73
2023/10/03 08:58:00;;;;;;;8.65;2.17;;;20.00;78.90;;;;;;9159666;19;20949;-71
2023/10/03 09:01:17;;;;;;;6.57;2.38;;;20.10;79.00;;;;;;9160105;19;20018;-72
2023/10/03 09:04:23;;;;;;;13.73;2.20;;;20.20;81.10;;;;;;9161412;19;20018;-68
2023/10/03 09:07:46;;;;;;;3.58;1.73;;;20.20;80.60;;;;;;9161403;19;20025;-70
2023/10/03 09:10:55;;;;;;;7.78;2.10;;;20.20;83.20;;;;;;9162921;19;20022;-70
2023/10/03 09:14:02;;;;;;;5.68;2.13;;;20.20;83.90;;;;;;9160202;19;20097;-71
2023/10/03 09:17:10;;;;;;;6.60;2.55;;;20.20;82.40;;;;;;9163011;19;20492;-71
2023/10/03 09:20:22;;;;;;;10.75;3.20;;;20.20;82.80;;;;;;9162301;19;20030;-71
2023/10/03 09:23:37;;;;;;;2.95;1.38;;;20.20;80.40;;;;;;9161246;19;20011;-70
2023/10/03 09:26:51;;;;;;;4.35;1.30;;;20.30;87.70;;;;;;9163258;19;20019;-76
2023/10/03 09:29:58;;;;;;;7.93;1.45;;;20.10;87.00;;;;;;9159483;19;20438;-74
2023/10/03 09:33:09;;;;;;;6.78;2.20;;;20.00;80.50;;;;;;9162501;19;20078;-73
2023/10/03 09:36:15;;;;;;;7.80;1.83;;;19.90;85.40;;;;;;9162874;19;20014;-76
2023/10/03 09:39:26;;;;;;;4.85;1.83;;;20.30;79.40;;;;;;9166112;19;20495;-77
2023/10/03 09:42:39;;;;;;;3.55;1.10;;;19.70;79.20;;;;;;9176407;19;20022;-78
2023/10/03 09:45:48;;;;;;;8.68;1.25;;;19.70;79.20;;;;;;9175589;19;20046;-76
2023/10/03 09:49:07;;;;;;;8.15;1.27;;;19.60;79.10;;;;;;9171480;19;20010;-75
2023/10/03 09:52:22;;;;;;;3.10;1.38;;;19.50;79.20;;;;;;9171110;19;20583;-73
2023/10/03 09:55:40;;;;;;;6.13;0.90;;;19.40;79.10;;;;;;9165691;19;20522;-77
2023/10/03 09:58:49;;;;;;;2.90;0.95;;;19.30;79.20;;;;;;9169222;19;20021;-74
2023/10/03 10:01:59;;;;;;;4.93;0.80;;;19.20;79.90;;;;;;9168864;19;20140;-74
2023/10/03 10:05:21;;;;;;;3.33;1.00;;;19.20;79.40;;;;;;9171133;19;20022;-73
2023/10/03 10:08:34;;;;;;;5.88;0.80;;;19.10;79.50;;;;;;9169918;19;20395;-71
2023/10/03 10:12:22;;;;;;;7.53;1.42;;;19.00;79.60;;;;;;9168960;19;20018;-72
2023/10/03 10:15:30;;;;;;;6.68;1.50;;;19.00;79.70;;;;;;9167359;19;20052;-74
2023/10/03 10:19:03;;;;;;;7.13;1.33;;;18.90;80.30;;;;;;9170435;19;20807;-71
2023/10/03 10:22:12;;;;;;;8.93;1.13;;;18.90;79.90;;;;;;9167326;19;20048;-75
2023/10/03 10:25:27;;;;;;;12.43;1.35;;;18.80;80.00;;;;;;9168124;19;20022;-73
2023/10/03 10:28:37;;;;;;;4.07;0.88;;;18.80;80.10;;;;;;9168621;19;20015;-70
2023/10/03 10:31:45;;;;;;;2.80;0.55;;;18.80;80.10;;;;;;9170407;19;20353;-71
2023/10/03 10:34:52;;;;;;;4.10;0.47;;;18.80;80.80;;;;;;9170437;19;20022;-74
2023/10/03 10:38:22;;;;;;;4.72;0.80;;;18.80;80.20;;;;;;9170079;19;20741;-71
2023/10/03 10:41:30;;;;;;;2.60;0.30;;;18.70;80.10;;;;;;9164447;19;20679;-73
2023/10/03 10:44:39;;;;;;;2.47;0.50;;;18.70;80.00;;;;;;9166514;19;21352;-76
2023/10/03 10:47:48;;;;;;;1.27;0.30;;;18.60;79.90;;;;;;9168882;19;20435;-77
2023/10/03 10:51:12;;;;;;;3.47;0.50;;;18.60;80.20;;;;;;9166346;19;20022;-73
2023/10/03 10:54:24;;;;;;;3.75;1.02;;;18.60;80.10;;;;;;9166193;19;20225;-71
2023/10/03 10:57:31;;;;;;;3.45;0.60;;;18.60;80.30;;;;;;9167055;19;20014;-70
2023/10/03 11:00:37;;;;;;;2.72;0.60;;;18.70;81.30;;;;;;9165086;19;20024;-73
2023/10/03 11:03:45;;;;;;;2.22;0.47;;;18.50;80.10;;;;;;9160389;19;20030;-70
2023/10/03 11:06:52;;;;;;;4.10;0.63;;;18.60;80.10;;;;;;9164882;19;20006;-71
2023/10/03 11:10:12;;;;;;;3.20;0.47;;;18.50;80.10;;;;;;9165345;19;20015;-74
2023/10/03 11:13:47;;;;;;;1.48;0.40;;;18.60;80.80;;;;;;9167493;19;20016;-74
2023/10/03 11:16:56;;;;;;;3.13;1.00;;;18.70;82.60;;;;;;9165764;19;20405;-71
2023/10/03 11:20:08;;;;;;;4.25;0.75;;;18.60;80.50;;;;;;9167866;19;20010;-72
2023/10/03 11:23:19;;;;;;;3.65;0.82;;;18.60;81.10;;;;;;9164982;19;20365;-73
2023/10/03 11:26:27;;;;;;;1.38;0.43;;;18.80;84.50;;;;;;9165368;19;20022;-74
2023/10/03 11:29:43;;;;;;;1.17;0.40;;;18.70;85.90;;;;;;9165852;19;20377;-72
2023/10/03 11:32:49;;;;;;;4.78;0.50;;;19.20;81.10;;;;;;9162395;19;20014;-73
2023/10/03 11:35:56;;;;;;;6.03;0.73;;;18.60;79.80;;;;;;9160500;19;20525;-72
2023/10/03 11:39:04;;;;;;;1.92;0.65;;;18.70;83.40;;;;;;9165915;19;20026;-73
2023/10/03 11:42:30;;;;;;;2.33;0.40;;;18.70;80.30;;;;;;9166265;19;20015;-72
2023/10/03 11:45:39;;;;;;;2.70;0.80;;;18.60;79.70;;;;;;9166834;19;20039;-73
2023/10/03 11:48:46;;;;;;;5.50;0.47;;;18.50;79.70;;;;;;9163859;19;20006;-73
2023/10/03 11:51:53;;;;;;;1.52;0.65;;;18.50;79.70;;;;;;9163150;19;20597;-72
2023/10/03 11:55:02;;;;;;;1.98;0.60;;;;;;;;;;9158094;19;20011;-69
2023/10/03 11:58:12;;;;;;;0.77;0.25;;;18.50;79.20;;;;;;9163102;19;20813;-73
2023/10/03 12:01:21;;;;;;;2.05;0.50;;;18.50;79.70;;;;;;9162525;19;20356;-71
2023/10/03 12:04:26;;;;;;;1.13;0.35;;;18.50;79.60;;;;;;9161240;19;20014;-72
2023/10/03 12:07:34;;;;;;;4.18;0.50;;;18.50;79.50;;;;;;9163176;19;20451;-71
2023/10/03 12:10:40;;;;;;;3.72;0.57;;;18.40;79.40;;;;;;9160467;19;20044;-72
2023/10/03 12:13:51;;;;;;;3.08;0.50;;;18.40;79.40;;;;;;9164680;19;20010;-71
2023/10/03 12:16:57;;;;;;;1.15;0.70;;;18.40;79.30;;;;;;9163432;19;20026;-70
2023/10/03 12:20:04;;;;;;;6.15;0.63;;;18.40;79.30;;;;;;9163208;19;20015;-72
2023/10/03 12:23:09;;;;;;;1.77;0.70;;;18.30;79.30;;;;;;9161084;19;20015;-73
2023/10/03 12:26:16;;;;;;;1.30;0.57;;;18.30;79.40;;;;;;9160385;19;20034;-76
2023/10/03 12:29:34;;;;;;;3.10;1.33;;;18.20;79.40;;;;;;9160754;19;20361;-75
2023/10/03 12:32:43;;;;;;;4.75;1.42;;;18.20;79.30;;;;;;9162640;19;20021;-74
2023/10/03 12:35:49;;;;;;;8.18;1.48;;;18.10;79.30;;;;;;9160439;19;20018;-73
2023/10/03 12:38:58;;;;;;;10.38;2.05;;;18.00;79.40;;;;;;9162771;19;20038;-71
2023/10/03 12:42:06;;;;;;;7.20;1.80;;;17.90;79.50;;;;;;9161982;19;20030;-72
2023/10/03 12:45:17;;;;;;;11.93;2.10;;;17.80;79.50;;;;;;9161118;19;20022;-73
2023/10/03 12:48:22;;;;;;;12.75;2.58;;;17.70;79.40;;;;;;9160917;19;20522;-74
2023/10/03 12:51:30;;;;;;;9.43;2.35;;;17.70;79.50;;;;;;9157294;19;20007;-71
2023/10/03 12:54:35;;;;;;;6.07;1.88;;;17.60;79.60;;;;;;9157609;19;20506;-72
2023/10/03 12:57:43;;;;;;;8.95;1.92;;;17.60;79.70;;;;;;9161863;19;20015;-74
2023/10/03 13:00:51;;;;;;;12.32;2.30;;;17.50;79.80;;;;;;9161632;19;20405;-71
2023/10/03 13:03:59;;;;;;;6.47;2.38;;;17.50;79.80;;;;;;9162270;19;20420;-71
2023/10/03 13:07:05;;;;;;;9.82;3.17;;;17.50;79.80;;;;;;9159595;19;20024;-71
2023/10/03 13:10:13;;;;;;;9.15;2.20;;;17.40;79.80;;;;;;9159639;19;20103;-73
2023/10/03 13:13:19;;;;;;;11.10;2.25;;;17.40;79.90;;;;;;9167331;19;20149;-71
2023/10/03 13:16:29;;;;;;;7.32;1.80;;;17.30;79.90;;;;;;9172842;19;20562;-74
2023/10/03 13:19:35;;;;;;;6.03;1.40;;;17.30;80.70;;;;;;9170095;19;20369;-74
2023/10/03 13:22:43;;;;;;;6.13;2.42;;;17.30;80.60;;;;;;9168953;19;20018;-71
2023/10/03 13:25:49;;;;;;;6.13;2.15;;;17.20;80.00;;;;;;9166407;19;20010;-72
2023/10/03 13:28:57;;;;;;;8.98;2.33;;;17.20;80.00;;;;;;9163949;19;20011;-74
2023/10/03 13:32:05;;;;;;;11.38;2.20;;;17.10;80.10;;;;;;9164236;19;20163;-72
2023/10/03 13:35:13;;;;;;;8.70;2.42;;;17.10;80.30;;;;;;9168599;19;20017;-74
2023/10/03 13:38:18;;;;;;;9.23;2.30;;;17.10;80.30;;;;;;9170792;19;20015;-73
2023/10/03 13:41:28;;;;;;;6.78;2.15;;;17.10;81.00;;;;;;9168721;19;20021;-71
2023/10/03 13:44:33;;;;;;;14.65;3.45;;;17.10;80.40;;;;;;9170308;19;20460;-71
2023/10/03 13:47:44;;;;;;;8.20;2.20;;;17.10;80.50;;;;;;9168322;19;20018;-72
2023/10/03 13:50:50;;;;;;;14.95;2.30;;;17.10;80.80;;;;;;9164534;19;20025;-72
2023/10/03 13:53:59;;;;;;;6.97;2.00;;;17.10;81.00;;;;;;9163382;19;20007;-73
2023/10/03 13:57:05;;;;;;;5.10;1.70;;;17.30;87.10;;;;;;9166894;19;20355;-72
2023/10/03 14:00:15;;;;;;;11.27;2.45;;;17.40;84.50;;;;;;9167867;19;20364;-74
2023/10/03 14:03:23;;;;;;;12.70;2.13;;;17.30;82.90;;;;;;9167560;19;20529;-70
2023/10/03 14:06:31;;;;;;;8.02;1.65;;;17.50;87.40;;;;;;9166710;19;20014;-72
2023/10/03 14:09:38;;;;;;;10.48;2.53;;;17.20;80.10;;;;;;9169132;19;20021;-71
2023/10/03 14:12:46;;;;;;;11.75;2.53;;;17.30;80.60;;;;;;9167644;19;20026;-73
2023/10/03 14:15:51;;;;;;;12.43;2.90;;;17.30;80.60;;;;;;9170179;19;20026;-73
2023/10/03 14:19:03;;;;;;;12.52;1.58;;;17.30;80.60;;;;;;9170156;19;20026;-73
2023/10/03 14:22:09;;;;;;;10.77;2.58;;;17.40;80.70;;;;;;9169444;19;20494;-74
2023/10/03 14:25:16;;;;;;;13.95;2.90;;;17.40;80.70;;;;;;9167990;19;20035;-72
2023/10/03 14:28:22;;;;;;;12.20;2.70;;;17.40;80.60;;;;;;9167901;19;20015;-72
2023/10/03 14:31:30;;;;;;;15.02;2.17;;;17.50;80.60;;;;;;9165815;19;20329;-71
2023/10/03 14:34:38;;;;;;;12.25;2.28;;;17.50;80.60;;;;;;9169540;19;20023;-71
2023/10/03 14:37:46;;;;;;;11.02;2.90;;;17.60;80.60;;;;;;9168337;19;20014;-72
2023/10/03 14:40:53;;;;;;;8.15;2.30;;;17.60;80.60;;;;;;9166352;19;20031;-72
2023/10/03 14:44:00;;;;;;;12.88;2.53;;;17.70;80.60;;;;;;9167104;19;20018;-72
2023/10/03 14:47:06;;;;;;;8.90;2.42;;;17.60;80.50;;;;;;9165749;19;20757;-71
2023/10/03 14:50:17;;;;;;;8.35;2.20;;;17.70;80.30;;;;;;9163868;19;20530;-73
2023/10/03 14:53:23;;;;;;;6.70;2.22;;;17.70;79.90;;;;;;9159726;19;20014;-69
2023/10/03 14:56:30;;;;;;;9.38;2.10;;;17.70;79.80;;;;;;9168324;19;20360;-73
2023/10/03 14:59:36;;;;;;;11.40;2.05;;;17.70;79.60;;;;;;9165307;19;20600;-71
2023/10/03 15:02:44;;;;;;;10.25;1.95;;;17.70;79.50;;;;;;9165285;19;20022;-69
2023/10/03 15:05:53;;;;;;;9.10;1.95;;;17.70;79.40;;;;;;9166584;19;20504;-71
2023/10/03 15:09:01;;;;;;;6.40;1.10;;;17.60;79.30;;;;;;9166798;19;20018;-74
2023/10/03 15:12:08;;;;;;;7.57;1.05;;;17.60;79.30;;;;;;9167385;19;20026;-74
2023/10/03 15:15:15;;;;;;;4.22;1.35;;;17.50;79.10;;;;;;9169295;19;20504;-74
2023/10/03 15:18:21;;;;;;;7.10;2.05;;;17.40;79.00;;;;;;9169126;19;20029;-77
2023/10/03 15:21:31;;;;;;;7.22;1.40;;;17.20;79.00;;;;;;9167574;19;20483;-73
2023/10/03 15:24:36;;;;;;;2.97;1.23;;;17.10;79.00;;;;;;9161930;19;20015;-77
2023/10/03 15:27:45;;;;;;;2.97;0.90;;;17.00;79.10;;;;;;9166304;19;20018;-77
2023/10/03 15:30:53;;;;;;;3.05;1.15;;;16.90;79.30;;;;;;9165004;19;20053;-76
2023/10/03 15:34:01;;;;;;;1.70;0.80;;;16.90;79.30;;;;;;9165471;19;20494;-74
2023/10/03 15:37:12;;;;;;;3.60;0.98;;;16.80;79.40;;;;;;9163357;19;20019;-74
2023/10/03 15:40:20;;;;;;;3.47;1.02;;;16.80;79.40;;;;;;9164359;19;20037;-74
2023/10/03 15:43:26;;;;;;;2.20;0.95;;;16.80;79.50;;;;;;9164733;19;20504;-74
2023/10/03 15:46:36;;;;;;;3.67;1.20;;;16.70;79.50;;;;;;9165831;19;20017;-74
2023/10/03 15:49:41;;;;;;;5.05;1.02;;;16.70;79.70;;;;;;9163331;19;20030;-72
2023/10/03 15:52:53;;;;;;;5.40;1.50;;;16.60;79.60;;;;;;9166489;19;20018;-74
2023/10/03 15:55:58;;;;;;;5.13;1.15;;;16.60;79.70;;;;;;9163544;19;20022;-71
2023/10/03 15:59:10;;;;;;;6.47;1.70;;;16.60;79.80;;;;;;9166617;19;20014;-75
2023/10/03 16:02:15;;;;;;;9.27;2.50;;;16.50;79.80;;;;;;9165755;19;20025;-71
2023/10/03 16:05:24;;;;;;;4.22;1.58;;;16.50;80.00;;;;;;9164713;19;20385;-74
2023/10/03 16:08:32;;;;;;;3.88;1.30;;;16.50;80.00;;;;;;9164882;19;20022;-74
2023/10/03 16:11:40;;;;;;;4.78;2.53;;;16.50;80.10;;;;;;9163938;19;20011;-75